Free Union, Virginia
Current Conditions -  °F | °C
As of 12:53 AM on Wednesday 22 Oct 2014 (Local Time) from KCHO Reporting Station
Overcast Overcast  
Wind Chill: 54°   Ceiling: 6500
Heat Index: 54°   Visibility: 10mi
Dew Point: 44°   Wind: 5mph
Humidity: 69%   Direction: 340°NNW
Pressure: 29.91"   Gusts: NA
Location:  38.15°N, 78.56°W
Report Text: KCHO 220453Z 34004KT 10SM OVC065 12/07 A2991 RMK AO2 RAE18 SLP125 P0000 T01220067 402220089
Loading
Personal Weather Stations






























Interactive Weather Map
Tropical Storm Tracking
New forecast layout! Learn more

10-Day Weather Forecast

Advertisements
Track Severe Weather on mobile